createdAt,value
2018-12-18T00:00:47.604Z,86.40
2018-12-18T00:03:15.687Z,86.40
2018-12-18T00:05:43.792Z,85.80
2018-12-18T00:08:11.895Z,85.50
2018-12-18T00:10:45.818Z,85.10
2018-12-18T00:13:13.914Z,84.50
2018-12-18T00:15:42.075Z,83.90
2018-12-18T00:18:10.208Z,84.00
2018-12-18T00:20:38.345Z,82.90
2018-12-18T00:23:06.452Z,84.20
2018-12-18T00:25:34.581Z,84.10
2018-12-18T00:28:02.736Z,85.00
2018-12-18T00:30:30.873Z,84.50
2018-12-18T00:32:58.937Z,84.00
2018-12-18T00:35:27.073Z,84.20
2018-12-18T00:37:55.181Z,83.90
2018-12-18T00:40:28.374Z,83.50
2018-12-18T00:42:56.572Z,83.30
2018-12-18T00:45:24.730Z,83.60
2018-12-18T00:47:53.529Z,83.60
2018-12-18T00:50:35.551Z,82.90
2018-12-18T00:53:03.616Z,83.80
2018-12-18T00:55:31.749Z,83.50
2018-12-18T00:58:00.007Z,83.80
2018-12-18T01:00:28.418Z,83.50
2018-12-18T01:02:56.602Z,84.10
2018-12-18T01:05:24.772Z,83.40
2018-12-18T01:07:53.363Z,83.40
2018-12-18T01:10:22.299Z,84.50
2018-12-18T01:12:50.527Z,84.10
2018-12-18T01:15:18.745Z,83.50
2018-12-18T01:17:46.900Z,83.50
2018-12-18T01:20:24.700Z,83.50
2018-12-18T01:22:52.815Z,83.50
2018-12-18T01:25:20.935Z,83.20
2018-12-18T01:27:49.052Z,83.60
2018-12-18T01:30:17.117Z,83.60
2018-12-18T01:32:45.196Z,83.50
2018-12-18T01:35:13.264Z,82.80
2018-12-18T01:37:41.438Z,82.00
2018-12-18T01:40:14.764Z,81.90
2018-12-18T01:42:42.814Z,81.40
2018-12-18T01:45:10.912Z,81.70
2018-12-18T01:47:39.027Z,81.30
2018-12-18T01:50:07.166Z,82.30
2018-12-18T01:52:35.337Z,82.30
2018-12-18T01:55:06.179Z,81.70
2018-12-18T01:57:35.013Z,82.00
2018-12-18T02:00:04.032Z,81.70
2018-12-18T02:02:32.196Z,82.30
2018-12-18T02:05:00.369Z,82.10
2018-12-18T02:07:28.583Z,82.30
2018-12-18T02:09:56.709Z,82.60
2018-12-18T02:12:24.923Z,82.70
2018-12-18T02:14:53.214Z,82.80
2018-12-18T02:17:21.280Z,82.90
2018-12-18T02:19:58.941Z,83.20
2018-12-18T02:22:26.973Z,83.40
2018-12-18T02:24:55.206Z,83.40
2018-12-18T02:27:23.294Z,83.40
2018-12-18T02:29:51.384Z,83.30
2018-12-18T02:32:19.509Z,83.50
2018-12-18T02:34:47.541Z,82.80
2018-12-18T02:37:15.648Z,83.40
2018-12-18T02:39:43.703Z,83.50
2018-12-18T02:42:11.778Z,83.40
2018-12-18T02:44:39.915Z,84.10
2018-12-18T02:47:08.003Z,83.60
2018-12-18T02:49:49.969Z,83.80
2018-12-18T02:52:18.007Z,83.90
2018-12-18T02:54:46.080Z,83.60
2018-12-18T02:57:14.147Z,83.40
2018-12-18T02:59:42.353Z,83.40
2018-12-18T03:02:10.403Z,83.40
2018-12-18T03:04:38.580Z,82.80
2018-12-18T03:07:06.637Z,83.30
2018-12-18T03:09:34.769Z,84.20
2018-12-18T03:12:03.159Z,82.40
2018-12-18T03:14:31.266Z,83.10
2018-12-18T03:16:59.388Z,82.50
2018-12-18T03:19:27.460Z,82.40
2018-12-18T03:21:55.626Z,83.10
2018-12-18T03:24:23.682Z,82.80
2018-12-18T03:26:51.780Z,82.60
2018-12-18T03:29:20.061Z,82.40
2018-12-18T03:31:52.963Z,83.30
2018-12-18T03:34:28.135Z,83.70
2018-12-18T03:36:51.287Z,83.30
2018-12-18T03:39:19.446Z,83.30
2018-12-18T03:41:47.951Z,83.00
2018-12-18T03:44:16.077Z,83.30
2018-12-18T03:46:44.223Z,83.20
2018-12-18T03:49:12.472Z,83.10
2018-12-18T03:51:40.544Z,83.50
2018-12-18T03:54:08.663Z,84.50
2018-12-18T03:56:36.824Z,84.10
2018-12-18T03:59:10.099Z,83.40
2018-12-18T04:01:38.169Z,84.70
2018-12-18T04:04:06.319Z,84.60
2018-12-18T04:06:34.507Z,85.20
2018-12-18T04:09:03.808Z,85.20
2018-12-18T04:11:31.897Z,84.50
2018-12-18T04:13:59.937Z,84.40
2018-12-18T04:16:28.006Z,85.20
2018-12-18T04:18:56.296Z,84.60
2018-12-18T04:21:24.400Z,85.00
2018-12-18T04:23:52.514Z,84.60
2018-12-18T04:26:20.605Z,84.60
2018-12-18T04:28:53.969Z,85.20
2018-12-18T04:31:22.008Z,85.30
2018-12-18T04:33:50.087Z,85.40
2018-12-18T04:36:18.233Z,84.80
2018-12-18T04:38:46.362Z,84.50
2018-12-18T04:41:14.568Z,84.50
2018-12-18T04:43:42.644Z,84.10
2018-12-18T04:46:10.780Z,84.00
2018-12-18T04:48:38.832Z,84.60
2018-12-18T04:51:07.110Z,85.40
2018-12-18T04:53:35.366Z,84.50
2018-12-18T04:56:03.426Z,84.00
2018-12-18T04:58:31.624Z,84.50
2018-12-18T05:00:59.710Z,84.60
2018-12-18T05:03:27.939Z,85.00
2018-12-18T05:05:56.087Z,84.80
2018-12-18T05:08:24.237Z,84.70
2018-12-18T05:10:52.554Z,84.90
2018-12-18T05:13:20.730Z,85.10
2018-12-18T05:15:48.975Z,85.70
2018-12-18T05:18:17.083Z,85.40
2018-12-18T05:20:46.673Z,84.70
2018-12-18T05:23:14.751Z,84.80
2018-12-18T05:25:42.807Z,85.00
2018-12-18T05:28:10.905Z,84.40
2018-12-18T05:30:39.148Z,84.80
2018-12-18T05:33:07.279Z,84.90
2018-12-18T05:35:35.373Z,85.60
2018-12-18T05:38:03.569Z,84.80
2018-12-18T05:40:31.809Z,84.90
2018-12-18T05:42:59.958Z,84.00
2018-12-18T05:45:28.104Z,83.10
2018-12-18T05:47:56.196Z,83.80
2018-12-18T05:50:24.401Z,83.40
2018-12-18T05:52:52.507Z,83.00
2018-12-18T05:55:20.571Z,83.80
2018-12-18T05:57:48.643Z,84.60
2018-12-18T06:00:16.822Z,85.10
2018-12-18T06:02:44.933Z,84.70
2018-12-18T06:05:13.123Z,85.00
2018-12-18T06:07:41.282Z,85.00
2018-12-18T06:10:09.436Z,84.70
2018-12-18T06:12:37.601Z,84.90
2018-12-18T06:15:05.876Z,85.00
2018-12-18T06:17:33.972Z,85.90
2018-12-18T06:20:02.089Z,85.20
2018-12-18T06:22:30.231Z,84.30
2018-12-18T06:24:58.458Z,84.60
2018-12-18T06:27:37.312Z,84.80
2018-12-18T06:30:16.416Z,85.20
2018-12-18T06:32:46.718Z,84.70
2018-12-18T06:35:14.919Z,84.70
2018-12-18T06:37:43.042Z,84.50
2018-12-18T06:40:11.519Z,84.40
2018-12-18T06:42:39.659Z,86.00
2018-12-18T06:45:07.933Z,86.10
2018-12-18T06:47:36.063Z,86.00
2018-12-18T06:50:04.465Z,85.80
2018-12-18T06:52:32.561Z,85.60
2018-12-18T06:55:00.653Z,85.50
2018-12-18T06:57:28.709Z,85.20
2018-12-18T06:59:56.863Z,86.00
2018-12-18T07:02:24.986Z,85.50
2018-12-18T07:04:53.164Z,84.80
2018-12-18T07:07:21.267Z,85.20
2018-12-18T07:09:49.393Z,84.70
2018-12-18T07:12:17.515Z,85.50
2018-12-18T07:14:45.643Z,85.50
2018-12-18T07:17:13.646Z,85.30
2018-12-18T07:19:46.889Z,85.30
2018-12-18T07:22:14.925Z,85.50
2018-12-18T07:24:43.006Z,85.70
2018-12-18T07:27:11.149Z,85.40
2018-12-18T07:29:39.605Z,84.80
2018-12-18T07:32:07.694Z,84.10
2018-12-18T07:34:35.785Z,84.70
2018-12-18T07:37:03.869Z,85.00
2018-12-18T07:39:32.004Z,85.30
2018-12-18T07:42:00.041Z,85.00
2018-12-18T07:44:28.103Z,85.20
2018-12-18T07:46:56.125Z,85.40
2018-12-18T07:49:24.258Z,84.80
2018-12-18T07:51:52.382Z,84.80
2018-12-18T07:54:20.456Z,84.30
2018-12-18T07:56:48.602Z,85.10
2018-12-18T07:59:16.728Z,84.90
2018-12-18T08:01:44.862Z,83.70
2018-12-18T08:04:12.983Z,83.70
2018-12-18T08:06:41.162Z,84.80
2018-12-18T08:09:09.240Z,84.80
2018-12-18T08:11:37.346Z,84.40
2018-12-18T08:14:05.417Z,84.00
2018-12-18T08:16:33.517Z,83.80
2018-12-18T08:19:01.686Z,83.80
2018-12-18T08:21:29.782Z,83.20
2018-12-18T08:23:57.870Z,83.20
2018-12-18T08:26:26.006Z,83.20
2018-12-18T08:28:54.063Z,83.80
2018-12-18T08:31:22.225Z,83.30
2018-12-18T08:33:50.348Z,83.10
2018-12-18T08:36:18.652Z,83.40
2018-12-18T08:38:46.751Z,82.50
2018-12-18T08:41:14.794Z,83.40
2018-12-18T08:43:43.029Z,83.50
2018-12-18T08:46:11.209Z,83.20
2018-12-18T08:48:39.301Z,83.00
2018-12-18T08:51:07.369Z,82.90
2018-12-18T08:53:35.528Z,82.00
2018-12-18T08:56:03.752Z,82.30
2018-12-18T08:58:31.952Z,80.20
2018-12-18T09:01:00.074Z,78.90
2018-12-18T09:03:28.150Z,79.00
2018-12-18T09:05:56.372Z,79.20
2018-12-18T09:08:24.540Z,78.70
2018-12-18T09:10:52.932Z,78.00
2018-12-18T09:13:20.921Z,78.10
2018-12-18T09:15:54.785Z,77.70
2018-12-18T09:18:22.970Z,77.40
2018-12-18T09:20:51.484Z,77.10
2018-12-18T09:23:19.593Z,75.80
2018-12-18T09:25:47.886Z,76.30
2018-12-18T09:28:15.963Z,76.60
2018-12-18T09:30:44.240Z,77.90
2018-12-18T09:33:12.393Z,78.20
2018-12-18T09:35:41.110Z,78.10
2018-12-18T09:38:15.122Z,79.10
2018-12-18T09:40:48.874Z,79.10
2018-12-18T09:43:22.559Z,79.00
2018-12-18T09:45:50.607Z,80.50
2018-12-18T09:48:18.818Z,79.70
2018-12-18T09:50:47.196Z,78.80
2018-12-18T09:53:15.207Z,78.70
2018-12-18T09:55:43.372Z,77.60
2018-12-18T09:58:11.462Z,76.60
2018-12-18T10:00:40.073Z,76.40
2018-12-18T10:03:08.436Z,74.80
2018-12-18T10:05:36.574Z,73.40
2018-12-18T10:08:04.675Z,72.40
2018-12-18T10:10:32.915Z,72.50
2018-12-18T10:13:01.054Z,72.00
2018-12-18T10:15:29.166Z,70.70
2018-12-18T10:17:57.295Z,69.70
2018-12-18T10:20:25.396Z,69.80
2018-12-18T10:22:53.550Z,69.60
2018-12-18T10:25:21.702Z,69.30
2018-12-18T10:27:49.910Z,69.70
2018-12-18T10:30:18.223Z,69.90
2018-12-18T10:32:46.279Z,70.10
2018-12-18T10:35:14.419Z,68.90
2018-12-18T10:37:42.665Z,67.70
2018-12-18T10:40:11.273Z,67.00
2018-12-18T10:42:39.359Z,65.70
2018-12-18T10:45:13.937Z,65.10
2018-12-18T10:47:42.171Z,63.00
2018-12-18T10:50:10.396Z,60.00
2018-12-18T10:52:38.539Z,60.20
2018-12-18T10:55:07.153Z,60.20
2018-12-18T10:57:35.369Z,60.00
2018-12-18T11:00:11.517Z,58.40
2018-12-18T11:02:39.665Z,60.30
2018-12-18T11:05:08.011Z,58.90
2018-12-18T11:07:36.043Z,58.10
2018-12-18T11:10:04.708Z,57.00
2018-12-18T11:12:38.539Z,57.50
2018-12-18T11:15:08.388Z,57.20
2018-12-18T11:17:36.531Z,58.20
2018-12-18T11:20:06.363Z,59.50
2018-12-18T11:22:34.482Z,60.00
2018-12-18T11:25:02.799Z,57.70
2018-12-18T11:27:30.939Z,58.20
2018-12-18T11:29:59.104Z,59.00
2018-12-18T11:32:32.999Z,57.30
2018-12-18T11:34:57.403Z,57.90
2018-12-18T11:37:27.014Z,58.40
2018-12-18T11:39:55.250Z,57.40
2018-12-18T11:42:23.320Z,58.10
2018-12-18T11:44:51.429Z,59.10
2018-12-18T11:47:19.521Z,60.00
2018-12-18T11:49:47.620Z,58.20
2018-12-18T11:52:15.711Z,58.20
2018-12-18T11:54:43.845Z,58.40
2018-12-18T11:57:12.950Z,58.50
2018-12-18T11:59:41.639Z,57.70
2018-12-18T12:02:09.731Z,57.70
2018-12-18T12:04:37.857Z,57.60
2018-12-18T12:07:06.037Z,57.70
2018-12-18T12:09:34.216Z,58.10
2018-12-18T12:12:02.519Z,60.00
2018-12-18T12:14:30.578Z,59.20
2018-12-18T12:16:58.726Z,59.20
2018-12-18T12:19:31.861Z,59.20
2018-12-18T12:21:59.987Z,59.20
2018-12-18T12:24:28.118Z,59.20
2018-12-18T12:27:01.794Z,59.10
2018-12-18T12:29:29.949Z,59.10
2018-12-18T12:31:58.030Z,59.80
2018-12-18T12:34:26.183Z,59.10
2018-12-18T12:36:54.315Z,59.00
2018-12-18T12:39:31.932Z,56.90
2018-12-18T12:42:00.063Z,55.90
2018-12-18T12:44:28.192Z,54.70
2018-12-18T12:46:56.231Z,54.30
2018-12-18T12:49:28.903Z,55.00
2018-12-18T12:51:57.000Z,55.60
2018-12-18T12:54:25.171Z,57.00
2018-12-18T12:56:53.466Z,57.10
2018-12-18T12:59:21.585Z,58.00
2018-12-18T13:01:49.786Z,58.30
2018-12-18T13:04:17.960Z,58.90
2018-12-18T13:06:46.135Z,57.60
2018-12-18T13:09:14.225Z,56.60
2018-12-18T13:11:42.631Z,56.80
2018-12-18T13:14:10.770Z,57.20
2018-12-18T13:16:38.928Z,57.70
2018-12-18T13:19:07.098Z,58.10
2018-12-18T13:21:35.258Z,58.80
2018-12-18T13:24:03.453Z,58.50
2018-12-18T13:26:31.559Z,59.40
2018-12-18T13:28:59.733Z,59.40
2018-12-18T13:31:27.824Z,59.30
2018-12-18T13:33:55.897Z,59.40
2018-12-18T13:36:24.020Z,59.50
2018-12-18T13:38:52.118Z,59.40
2018-12-18T13:41:20.278Z,59.40
2018-12-18T13:43:48.379Z,59.50
2018-12-18T13:46:17.102Z,59.00
2018-12-18T13:48:45.245Z,59.40
2018-12-18T13:51:13.349Z,59.30
2018-12-18T13:53:41.762Z,59.30
2018-12-18T13:56:09.808Z,59.20
2018-12-18T13:58:37.959Z,59.20
2018-12-18T14:01:06.144Z,59.20
2018-12-18T14:03:34.274Z,59.10
2018-12-18T14:06:02.450Z,59.10
2018-12-18T14:08:30.606Z,59.10
2018-12-18T14:10:59.101Z,58.90
2018-12-18T14:13:27.212Z,59.00
2018-12-18T14:15:55.388Z,59.50
2018-12-18T14:18:23.770Z,59.60
2018-12-18T14:20:52.226Z,60.00
2018-12-18T14:23:20.336Z,60.50
2018-12-18T14:25:48.431Z,60.90
2018-12-18T14:28:16.569Z,61.50
2018-12-18T14:30:44.825Z,62.20
2018-12-18T14:33:12.920Z,62.30
2018-12-18T14:35:40.994Z,62.80
2018-12-18T14:38:09.086Z,63.00
2018-12-18T14:40:37.192Z,63.40
2018-12-18T14:43:06.060Z,63.70
2018-12-18T14:45:34.492Z,63.60
2018-12-18T14:48:02.593Z,63.60
2018-12-18T14:50:30.938Z,63.60
2018-12-18T14:52:59.061Z,64.70
2018-12-18T14:55:27.195Z,65.70
2018-12-18T14:57:55.528Z,67.10
2018-12-18T15:00:23.629Z,68.60
2018-12-18T15:02:51.729Z,68.60
2018-12-18T15:05:19.877Z,68.00
2018-12-18T15:07:48.000Z,69.20
2018-12-18T15:10:16.069Z,70.10
2018-12-18T15:12:50.537Z,70.30
2018-12-18T15:15:19.078Z,70.40
2018-12-18T15:17:47.158Z,71.10
2018-12-18T15:20:15.330Z,71.20
2018-12-18T15:22:43.531Z,72.10
2018-12-18T15:25:11.638Z,72.10
2018-12-18T15:27:39.758Z,72.40
2018-12-18T15:30:09.875Z,73.20
2018-12-18T15:32:38.802Z,73.10
2018-12-18T15:35:09.137Z,73.20
2018-12-18T15:37:38.895Z,73.90
2018-12-18T15:40:07.204Z,73.90
2018-12-18T15:42:35.421Z,74.00
2018-12-18T15:45:04.125Z,74.50
2018-12-18T15:47:32.262Z,74.60
2018-12-18T15:50:00.446Z,75.30
2018-12-18T15:52:28.657Z,74.50
2018-12-18T15:54:56.714Z,75.00
2018-12-18T15:57:24.845Z,75.10
2018-12-18T15:59:52.942Z,75.20
2018-12-18T16:02:24.222Z,75.60
2018-12-18T16:04:51.334Z,75.50
2018-12-18T16:07:19.508Z,74.90
2018-12-18T16:10:01.544Z,75.40
2018-12-18T16:12:29.653Z,75.20
2018-12-18T16:14:57.798Z,75.50
2018-12-18T16:17:25.982Z,75.50
2018-12-18T16:19:54.124Z,75.70
2018-12-18T16:22:22.208Z,75.60
2018-12-18T16:24:50.387Z,75.90
2018-12-18T16:27:18.526Z,76.30
2018-12-18T16:29:46.686Z,76.20
2018-12-18T16:32:14.772Z,76.50
2018-12-18T16:34:42.927Z,76.30
2018-12-18T16:37:11.074Z,76.30
2018-12-18T16:39:39.147Z,76.80
2018-12-18T16:42:08.281Z,76.90
2018-12-18T16:44:36.401Z,77.50
2018-12-18T16:47:05.213Z,77.40
2018-12-18T16:49:33.249Z,77.60
2018-12-18T16:52:01.355Z,77.50
2018-12-18T16:54:29.926Z,77.50
2018-12-18T16:56:58.244Z,77.50
2018-12-18T16:59:26.337Z,77.50
2018-12-18T17:01:54.434Z,77.50
2018-12-18T17:04:22.576Z,77.40
2018-12-18T17:06:50.704Z,77.40
2018-12-18T17:09:28.145Z,77.40
2018-12-18T17:11:56.623Z,77.40
2018-12-18T17:14:24.785Z,77.50
2018-12-18T17:16:54.874Z,77.40
2018-12-18T17:19:25.198Z,78.00
2018-12-18T17:21:53.427Z,77.70
2018-12-18T17:24:24.285Z,78.20
2018-12-18T17:26:52.417Z,78.40
2018-12-18T17:29:21.684Z,78.80
2018-12-18T17:31:51.608Z,78.90
2018-12-18T17:34:19.824Z,78.90
2018-12-18T17:36:48.846Z,79.20
2018-12-18T17:39:25.222Z,79.00
2018-12-18T17:41:54.423Z,78.90
2018-12-18T17:44:22.510Z,79.50
2018-12-18T17:46:50.640Z,78.90
2018-12-18T17:49:19.218Z,79.00
2018-12-18T17:51:47.345Z,79.00
2018-12-18T17:54:15.698Z,79.50
2018-12-18T17:56:43.864Z,78.90
2018-12-18T17:59:12.038Z,79.60
2018-12-18T18:01:40.147Z,80.10
2018-12-18T18:04:09.055Z,79.80
2018-12-18T18:06:37.239Z,80.10
2018-12-18T18:09:08.373Z,79.80
2018-12-18T18:11:36.704Z,79.90
2018-12-18T18:14:04.848Z,79.70
2018-12-18T18:16:32.955Z,79.60
2018-12-18T18:19:01.153Z,79.50
2018-12-18T18:21:29.294Z,79.60
2018-12-18T18:23:57.592Z,79.00
2018-12-18T18:26:25.763Z,78.70
2018-12-18T18:28:54.808Z,77.70
2018-12-18T18:31:23.177Z,77.80
2018-12-18T18:33:51.265Z,77.60
2018-12-18T18:36:20.058Z,77.90
2018-12-18T18:39:02.192Z,77.80
2018-12-18T18:41:30.340Z,77.20
2018-12-18T18:43:58.486Z,77.20
2018-12-18T18:46:26.550Z,77.10
2018-12-18T18:48:54.841Z,77.00
2018-12-18T18:51:23.011Z,77.10
2018-12-18T18:53:51.185Z,77.00
2018-12-18T18:56:19.953Z,76.80
2018-12-18T18:58:48.201Z,77.00
2018-12-18T19:01:17.086Z,76.10
2018-12-18T19:03:45.284Z,75.90
2018-12-18T19:06:13.450Z,76.30
2018-12-18T19:08:41.627Z,75.20
2018-12-18T19:11:09.791Z,75.60
2018-12-18T19:13:37.926Z,75.50
2018-12-18T19:16:06.257Z,75.70
2018-12-18T19:18:34.437Z,76.10
2018-12-18T19:21:02.657Z,75.60
2018-12-18T19:23:30.776Z,74.70
2018-12-18T19:25:58.951Z,75.40
2018-12-18T19:28:27.123Z,74.60
2018-12-18T19:30:55.340Z,76.00
2018-12-18T19:33:23.488Z,75.20
2018-12-18T19:35:51.770Z,75.20
2018-12-18T19:38:19.966Z,73.80
2018-12-18T19:40:53.427Z,74.00
2018-12-18T19:43:21.756Z,74.20
2018-12-18T19:45:50.059Z,74.20
2018-12-18T19:48:18.682Z,73.10
2018-12-18T19:50:53.042Z,73.60
2018-12-18T19:53:21.294Z,73.90
2018-12-18T19:55:49.434Z,73.20
2018-12-18T19:58:18.552Z,73.20
2018-12-18T20:00:46.997Z,73.60
2018-12-18T20:03:15.299Z,74.00
2018-12-18T20:05:43.445Z,73.90
2018-12-18T20:08:11.637Z,74.10
2018-12-18T20:10:40.263Z,74.50
2018-12-18T20:13:09.063Z,74.40
2018-12-18T20:15:37.290Z,74.60
2018-12-18T20:18:05.538Z,74.70
2018-12-18T20:20:33.784Z,74.90
2018-12-18T20:23:01.967Z,75.20
2018-12-18T20:25:30.293Z,75.90
2018-12-18T20:27:58.429Z,76.80
2018-12-18T20:30:26.896Z,76.70
2018-12-18T20:32:55.125Z,76.70
2018-12-18T20:35:23.367Z,76.40
2018-12-18T20:37:51.594Z,76.60
2018-12-18T20:40:20.040Z,76.50
2018-12-18T20:42:48.119Z,76.50
2018-12-18T20:45:16.243Z,77.40
2018-12-18T20:47:45.305Z,77.70
2018-12-18T20:50:18.764Z,78.10
2018-12-18T20:52:46.970Z,78.60
2018-12-18T20:55:15.205Z,78.90
2018-12-18T20:57:43.318Z,79.00
2018-12-18T21:00:14.101Z,80.30
2018-12-18T21:02:42.236Z,80.10
2018-12-18T21:05:10.754Z,80.30
2018-12-18T21:07:38.899Z,80.30
2018-12-18T21:10:08.463Z,80.00
2018-12-18T21:12:36.641Z,80.20
2018-12-18T21:15:06.059Z,80.00
2018-12-18T21:17:34.297Z,80.10
2018-12-18T21:20:02.852Z,80.00
2018-12-18T21:22:30.985Z,80.00
2018-12-18T21:24:59.037Z,80.10
2018-12-18T21:27:27.204Z,80.30
2018-12-18T21:30:14.338Z,79.90
2018-12-18T21:32:42.813Z,80.00
2018-12-18T21:35:11.026Z,80.10
2018-12-18T21:37:39.110Z,80.80
2018-12-18T21:40:07.801Z,80.30
2018-12-18T21:42:35.924Z,80.00
2018-12-18T21:45:04.737Z,80.70
2018-12-18T21:47:32.880Z,79.90
2018-12-18T21:50:01.109Z,80.90
2018-12-18T21:52:30.515Z,80.80
2018-12-18T21:54:58.680Z,80.30
2018-12-18T21:57:26.834Z,80.90
2018-12-18T22:00:05.839Z,80.80
2018-12-18T22:02:33.941Z,82.10
2018-12-18T22:05:02.005Z,82.10
2018-12-18T22:07:30.037Z,82.80
2018-12-18T22:09:58.216Z,82.90
2018-12-18T22:12:26.333Z,81.60
2018-12-18T22:14:54.564Z,81.80
2018-12-18T22:17:22.641Z,82.30
2018-12-18T22:19:50.732Z,81.90
2018-12-18T22:22:18.849Z,82.40
2018-12-18T22:24:46.926Z,83.30
2018-12-18T22:27:15.022Z,83.20
2018-12-18T22:29:43.186Z,83.20
2018-12-18T22:32:11.333Z,82.90
2018-12-18T22:34:39.370Z,82.70
2018-12-18T22:37:07.440Z,83.00
2018-12-18T22:39:35.556Z,82.80
2018-12-18T22:42:03.806Z,82.60
2018-12-18T22:44:31.831Z,82.80
2018-12-18T22:46:59.968Z,82.90
2018-12-18T22:49:28.247Z,82.40
2018-12-18T22:51:56.406Z,83.70
2018-12-18T22:54:24.508Z,84.00
2018-12-18T22:56:52.570Z,84.50
2018-12-18T22:59:30.179Z,84.80
2018-12-18T23:02:00.344Z,84.50
2018-12-18T23:04:28.460Z,84.50
2018-12-18T23:06:56.561Z,84.40
2018-12-18T23:09:24.673Z,84.60
2018-12-18T23:11:52.823Z,84.60
2018-12-18T23:14:20.929Z,84.90
2018-12-18T23:16:49.101Z,84.20
2018-12-18T23:19:23.935Z,83.80
2018-12-18T23:21:52.147Z,84.10
2018-12-18T23:24:20.264Z,84.90
2018-12-18T23:26:48.435Z,85.20
2018-12-18T23:29:16.559Z,86.10
2018-12-18T23:31:44.709Z,86.00
2018-12-18T23:34:12.804Z,85.10
2018-12-18T23:36:40.946Z,85.40
2018-12-18T23:39:08.994Z,84.90
2018-12-18T23:41:37.217Z,84.90
2018-12-18T23:44:05.289Z,85.00
2018-12-18T23:46:33.474Z,85.70
2018-12-18T23:49:01.922Z,85.50
2018-12-18T23:51:30.182Z,85.60
2018-12-18T23:53:58.241Z,85.60
2018-12-18T23:56:26.367Z,84.80
2018-12-18T23:58:54.434Z,84.70
